Time;durP1;ratioP1;P1;durP2;ratioP2;P2;SDS_P1;SDS_P2;PMS_P1;PMS_P2;Temp;Humidity;BMP_temperature;BMP_pressure;BME280_temperature;BME280_humidity;BME280_pressure;Samples;Min_cycle;Max_cycle;Signal;HPM_P1;HPM_P2
2020/12/04 00:00:15;;;;;;;84.50;37.27;;;;;;;1.48;82.17;98952.88;126376;1101;23372;-55
2020/12/04 00:03:03;;;;;;;91.93;37.90;;;;;;;1.47;82.73;98954.86;126246;1101;23379;-56
2020/12/04 00:05:32;;;;;;;105.07;41.07;;;;;;;1.50;82.28;98953.20;126344;1102;23406;-55
2020/12/04 00:08:02;;;;;;;88.52;39.60;;;;;;;1.53;82.55;98955.06;126339;1101;23318;-59
2020/12/04 00:10:32;;;;;;;88.70;40.65;;;;;;;1.55;82.63;98955.38;126289;1101;25076;-55
2020/12/04 00:13:00;;;;;;;;;;;;;;;1.56;82.30;98949.42;126591;1101;28302;-56
2020/12/04 00:15:31;;;;;;;90.10;40.80;;;;;;;1.58;82.53;98951.72;126295;1101;21500;-54
2020/12/04 00:18:00;;;;;;;88.80;40.33;;;;;;;1.60;82.58;98932.78;126320;1101;23457;-57
2020/12/04 00:20:29;;;;;;;88.77;40.03;;;;;;;1.61;82.70;98931.58;126310;1101;23431;-57
2020/12/04 00:22:58;;;;;;;98.20;40.27;;;;;;;1.62;82.46;98919.34;126324;1101;26302;-58
2020/12/04 00:25:27;;;;;;;91.30;38.00;;;;;;;1.63;82.39;98923.64;126268;1101;23386;-54
2020/12/04 00:27:57;;;;;;;81.60;37.70;;;;;;;1.64;82.17;98922.41;126299;1101;23479;-57
2020/12/04 00:30:26;;;;;;;82.63;38.37;;;;;;;1.64;82.69;98908.66;126295;1101;23309;-54
2020/12/04 00:32:55;;;;;;;89.93;40.03;;;;;;;1.63;82.12;98909.89;126213;1101;23418;-55
2020/12/04 00:35:25;;;;;;;92.50;40.60;;;;;;;1.63;82.20;98896.87;126295;1101;23389;-55
2020/12/04 00:37:54;;;;;;;89.17;38.80;;;;;;;1.62;82.52;98913.84;126792;1102;23400;-54
2020/12/04 00:40:24;;;;;;;90.03;40.57;;;;;;;1.61;82.27;98904.81;126452;1101;23338;-56
2020/12/04 00:42:53;;;;;;;97.30;42.33;;;;;;;1.59;82.76;98890.75;126323;1101;28428;-56
2020/12/04 00:45:24;;;;;;;96.83;39.93;;;;;;;1.58;82.91;98904.96;126387;1101;23384;-56
2020/12/04 00:47:53;;;;;;;89.87;40.83;;;;;;;1.58;82.33;98902.98;126458;1101;23773;-56
2020/12/04 00:50:22;;;;;;;88.43;41.67;;;;;;;1.57;82.46;98911.69;126508;1101;26776;-56
2020/12/04 00:52:53;;;;;;;98.20;42.30;;;;;;;1.57;82.88;98901.44;126373;1101;23372;-56
2020/12/04 00:55:22;;;;;;;94.20;41.37;;;;;;;1.58;83.19;98902.98;126456;1101;23315;-53
2020/12/04 00:57:51;;;;;;;102.57;42.03;;;;;;;1.58;82.62;98897.48;126297;1101;23353;-56
2020/12/04 01:00:21;;;;;;;81.53;37.57;;;;;;;1.58;82.60;98902.20;126464;1101;23322;-59
2020/12/04 01:02:50;;;;;;;103.50;42.60;;;;;;;1.58;82.80;98902.20;126423;1101;26804;-55
2020/12/04 01:05:19;;;;;;;98.67;43.43;;;;;;;1.59;83.06;98898.25;126311;1101;24970;-59
2020/12/04 01:07:48;;;;;;;91.10;39.33;;;;;;;1.62;82.61;98887.11;126341;1101;27556;-61
2020/12/04 01:10:17;;;;;;;91.00;40.27;;;;;;;1.63;83.04;98880.37;126341;1102;23780;-57
2020/12/04 01:12:47;;;;;;;86.83;38.10;;;;;;;1.67;83.26;98879.48;126342;1101;25019;-55
2020/12/04 01:15:17;;;;;;;82.82;37.53;;;;;;;1.66;82.84;98875.96;126478;1101;23520;-55
2020/12/04 01:17:46;;;;;;;88.15;38.65;;;;;;;1.65;83.41;98879.95;126379;1101;26792;-56
2020/12/04 01:20:15;;;;;;;83.35;39.00;;;;;;;1.63;82.72;98872.13;126409;1101;25198;-57
2020/12/04 01:22:45;;;;;;;92.03;39.23;;;;;;;1.64;83.11;98889.40;126550;1102;23334;-56
2020/12/04 01:25:14;;;;;;;100.17;41.10;;;;;;;1.65;83.30;98877.20;126423;1101;23348;-56
2020/12/04 01:27:43;;;;;;;89.63;39.03;;;;;;;1.66;83.32;98873.20;126400;1102;23369;-59
2020/12/04 01:30:12;;;;;;;85.83;36.87;;;;;;;1.69;83.06;98869.56;126348;1101;27098;-54
2020/12/04 01:32:42;;;;;;;80.32;36.58;;;;;;;1.71;83.00;98856.13;126309;1101;23371;-57
2020/12/04 01:35:11;;;;;;;74.93;33.30;;;;;;;1.72;83.02;98854.15;126449;1101;26308;-59
2020/12/04 01:37:40;;;;;;;83.07;35.23;;;;;;;1.71;83.28;98849.85;126416;1101;23382;-57
2020/12/04 01:40:10;;;;;;;86.73;36.57;;;;;;;1.71;82.68;98845.13;126333;1101;26027;-58
2020/12/04 01:42:39;;;;;;;82.60;34.13;;;;;;;1.71;83.13;98847.88;126503;1101;25008;-57
2020/12/04 01:45:08;;;;;;;78.13;32.57;;;;;;;1.72;82.87;98837.64;126347;1101;23607;-59
2020/12/04 01:47:37;;;;;;;68.53;30.63;;;;;;;1.74;83.18;98844.20;126383;1101;26045;-57
2020/12/04 01:50:06;;;;;;;76.33;33.50;;;;;;;1.76;83.28;98838.27;126668;1101;26820;-57
2020/12/04 01:52:36;;;;;;;68.43;29.83;;;;;;;1.77;83.37;98832.30;126263;1101;26308;-55
2020/12/04 01:55:04;;;;;;;;;;;;;;;1.80;83.35;98833.39;126319;1101;27962;-57
2020/12/04 01:57:39;;;;;;;70.27;29.70;;;;;;;1.80;83.01;98825.13;126270;1101;21495;-58
2020/12/04 02:00:08;;;;;;;68.47;29.97;;;;;;;1.78;83.00;98824.82;126332;1101;23372;-59
2020/12/04 02:02:37;;;;;;;78.13;31.27;;;;;;;1.77;82.98;98826.80;126341;1101;23417;-55
2020/12/04 02:05:06;;;;;;;75.17;31.63;;;;;;;1.77;83.28;98820.52;126417;1101;23429;-58
2020/12/04 02:07:44;;;;;;;69.80;29.97;;;;;;;1.80;83.21;98819.63;126427;1096;23392;-57
2020/12/04 02:10:19;;;;;;;69.13;29.83;;;;;;;1.80;83.08;98814.88;126291;1096;23328;-59
2020/12/04 02:12:50;;;;;;;63.05;29.00;;;;;;;1.82;83.09;98795.92;126463;1101;23327;-61
2020/12/04 02:15:20;;;;;;;70.77;29.13;;;;;;;1.83;82.97;98807.70;126357;1101;23481;-56
2020/12/04 02:17:56;;;;;;;63.10;26.23;;;;;;;1.83;83.20;98799.45;126399;1101;23453;-60
2020/12/04 02:20:25;;;;;;;57.53;25.83;;;;;;;1.79;83.32;98796.07;126377;1101;23284;-57
2020/12/04 02:22:54;;;;;;;70.70;26.57;;;;;;;1.79;83.13;98794.09;126323;1101;27853;-57
2020/12/04 02:25:23;;;;;;;74.33;30.37;;;;;;;1.79;83.63;98785.84;126301;1101;23311;-56
2020/12/04 02:27:53;;;;;;;64.60;29.30;;;;;;;1.82;83.35;98773.16;126445;1101;23319;-57
2020/12/04 02:30:28;;;;;;;66.00;28.20;;;;;;;1.84;83.44;98777.00;126332;1101;24828;-59
2020/12/04 02:32:58;;;;;;;61.13;27.90;;;;;;;1.87;83.54;98770.56;126506;1101;23489;-59
2020/12/04 02:35:27;;;;;;;67.97;29.13;;;;;;;1.90;83.52;98760.64;126351;1101;27843;-56
2020/12/04 02:37:56;;;;;;;69.87;30.67;;;;;;;1.91;83.47;98762.93;126520;1101;27758;-59
2020/12/04 02:40:25;;;;;;;62.60;27.73;;;;;;;1.91;83.63;98759.41;126306;1101;23301;-57
2020/12/04 02:42:54;;;;;;;74.87;31.67;;;;;;;1.90;83.42;98761.41;126293;1101;23290;-57
2020/12/04 02:45:24;;;;;;;66.80;29.43;;;;;;;1.92;82.98;98769.20;126319;1101;23382;-56
2020/12/04 02:47:53;;;;;;;63.70;29.43;;;;;;;1.93;83.52;98768.74;126165;1101;23480;-57
2020/12/04 02:50:22;;;;;;;70.70;29.97;;;;;;;1.95;82.92;98765.53;125847;1096;30337;-59
2020/12/04 02:52:53;;;;;;;64.43;27.97;;;;;;;1.96;83.11;98756.06;126191;1101;23379;-54
2020/12/04 02:55:22;;;;;;;72.73;30.37;;;;;;;1.98;83.16;98762.64;126346;1101;23326;-59
2020/12/04 02:57:51;;;;;;;65.93;28.80;;;;;;;1.98;83.60;98754.39;126350;1101;23381;-55
2020/12/04 03:00:20;;;;;;;67.83;28.40;;;;;;;1.97;83.46;98750.09;126302;1101;23333;-58
2020/12/04 03:02:50;;;;;;;68.37;28.67;;;;;;;1.96;83.69;98745.83;126398;1101;23341;-59
2020/12/04 03:05:19;;;;;;;67.53;28.83;;;;;;;1.96;83.09;98745.83;126268;1101;23358;-56
2020/12/04 03:07:48;;;;;;;67.90;27.70;;;;;;;1.98;83.45;98742.61;126319;1102;23335;-61
2020/12/04 03:10:17;;;;;;;56.07;25.07;;;;;;;1.98;83.57;98735.13;126396;1101;23318;-58
2020/12/04 03:12:47;;;;;;;56.13;27.27;;;;;;;1.99;83.26;98733.11;126309;1101;24664;-58
2020/12/04 03:15:16;;;;;;;63.58;28.17;;;;;;;2.00;83.06;98735.44;126355;1101;23373;-59
2020/12/04 03:17:46;;;;;;;56.93;24.47;;;;;;;2.01;83.18;98731.44;126393;1100;23403;-54
2020/12/04 03:20:16;;;;;;;59.40;28.30;;;;;;;2.00;83.53;98729.16;126534;1100;23369;-56
2020/12/04 03:22:45;;;;;;;62.40;25.37;;;;;;;1.99;83.36;98725.63;126327;1100;29275;-56
2020/12/04 03:25:14;;;;;;;60.37;25.17;;;;;;;1.98;83.44;98717.84;126318;1100;23372;-56
2020/12/04 03:27:43;;;;;;;58.37;25.93;;;;;;;1.98;83.26;98715.86;126276;1101;23319;-54
2020/12/04 03:30:12;;;;;;;55.20;25.27;;;;;;;2.00;82.95;98707.14;126315;1099;23316;-57
2020/12/04 03:32:42;;;;;;;56.15;25.32;;;;;;;2.00;83.31;98704.38;126422;1100;23382;-56
2020/12/04 03:35:11;;;;;;;48.43;20.50;;;;;;;2.00;83.56;98696.90;126211;1100;23370;-56
2020/12/04 03:37:40;;;;;;;53.80;23.13;;;;;;;2.00;83.28;98696.13;126287;1101;23382;-57
2020/12/04 03:40:09;;;;;;;49.67;22.03;;;;;;;1.99;83.62;98686.33;126270;1100;24843;-56
2020/12/04 03:42:39;;;;;;;56.87;23.43;;;;;;;2.00;83.76;98680.39;126380;1100;23327;-56
2020/12/04 03:45:08;;;;;;;57.23;24.77;;;;;;;2.00;83.49;98657.59;126412;1101;25678;-55
2020/12/04 03:47:39;;;;;;;55.60;23.70;;;;;;;2.03;83.50;98660.19;126261;1100;23668;-56
2020/12/04 03:50:08;;;;;;;51.33;21.83;;;;;;;2.05;83.49;98654.98;126634;1101;23373;-56
2020/12/04 03:52:37;;;;;;;49.95;22.20;;;;;;;2.06;83.90;98651.02;126184;1100;23315;-57
2020/12/04 03:55:07;;;;;;;51.33;23.37;;;;;;;2.10;83.78;98659.89;126203;1101;23381;-57
2020/12/04 03:57:36;;;;;;;53.63;21.97;;;;;;;2.11;83.78;98655.16;126260;1100;23344;-55
2020/12/04 04:00:07;;;;;;;48.50;20.73;;;;;;;2.12;83.59;98659.42;126329;1101;23326;-57
2020/12/04 04:02:36;;;;;;;52.63;20.97;;;;;;;2.11;83.23;98647.64;126478;1100;23369;-56
2020/12/04 04:05:05;;;;;;;56.47;22.40;;;;;;;2.13;83.34;98650.69;126261;1100;23380;-57
2020/12/04 04:07:34;;;;;;;48.80;19.07;;;;;;;2.15;83.68;98659.25;126616;1100;23319;-57
2020/12/04 04:10:05;;;;;;;51.63;22.57;;;;;;;2.16;83.26;98660.80;126390;1101;23385;-59
2020/12/04 04:12:35;;;;;;;50.60;21.50;;;;;;;2.17;83.74;98654.05;126346;1101;23382;-55
2020/12/04 04:15:04;;;;;;;49.37;20.93;;;;;;;2.18;83.29;98660.33;126292;1100;23373;-58
2020/12/04 04:17:33;;;;;;;46.00;20.03;;;;;;;2.17;83.77;98651.30;126338;1101;27842;-56
2020/12/04 04:20:04;;;;;;;44.23;19.30;;;;;;;2.16;83.36;98651.77;126361;1093;23321;-55
2020/12/04 04:22:33;;;;;;;54.25;20.75;;;;;;;2.17;83.58;98656.80;126380;1100;23593;-54
2020/12/04 04:25:02;;;;;;;57.67;21.17;;;;;;;2.19;83.36;98651.60;126268;1100;23310;-55
2020/12/04 04:27:31;;;;;;;47.43;20.03;;;;;;;2.22;83.39;98647.94;126380;1101;23315;-54
2020/12/04 04:30:00;;;;;;;49.17;20.70;;;;;;;2.25;83.28;98646.27;126467;1100;25121;-56
2020/12/04 04:32:30;;;;;;;43.43;19.80;;;;;;;2.28;83.38;98639.81;126273;1100;23380;-56
2020/12/04 04:34:59;;;;;;;45.30;19.02;;;;;;;2.31;83.63;98623.16;126360;1101;23291;-57
2020/12/04 04:37:28;;;;;;;45.07;19.67;;;;;;;2.32;83.27;98624.67;126357;1100;23400;-56
2020/12/04 04:39:58;;;;;;;39.87;17.10;;;;;;;2.35;83.52;98625.73;126440;1101;23382;-54
2020/12/04 04:42:27;;;;;;;48.57;19.80;;;;;;;2.38;83.58;98622.05;126541;1100;27624;-55
2020/12/04 04:44:56;;;;;;;45.50;18.55;;;;;;;2.43;83.41;98624.19;126286;1100;26344;-55
2020/12/04 04:47:30;;;;;;;49.03;19.47;;;;;;;2.48;83.55;98616.05;126441;1100;23332;-56
2020/12/04 04:50:00;;;;;;;47.53;22.97;;;;;;;2.54;83.22;98612.69;126375;1100;23299;-56
2020/12/04 04:52:29;;;;;;;48.63;23.27;;;;;;;2.58;83.61;98611.30;126327;1101;23327;-55
2020/12/04 04:54:58;;;;;;;43.80;18.43;;;;;;;2.62;83.56;98608.37;126369;1100;23370;-56
2020/12/04 04:57:28;;;;;;;39.73;18.10;;;;;;;2.68;83.86;98600.99;126434;1100;23315;-59
2020/12/04 04:59:59;;;;;;;39.33;16.77;;;;;;;2.73;83.50;98606.63;126562;1101;23376;-56
2020/12/04 05:02:27;;;;;;;;;;;;;;;2.78;83.43;98594.22;126591;1100;26771;-57
2020/12/04 05:04:58;;;;;;;50.40;21.10;;;;;;;2.83;83.15;98586.09;126384;1101;21564;-56
2020/12/04 05:07:33;;;;;;;49.23;19.97;;;;;;;2.88;83.45;98587.42;126878;1100;23657;-55
2020/12/04 05:10:13;;;;;;;42.80;17.33;;;;;;;2.91;83.24;98589.27;126338;1100;23424;-57
2020/12/04 05:12:42;;;;;;;;;;;;;;;2.96;83.22;98585.88;126591;1093;23520;-57
2020/12/04 05:15:23;;;;;;;43.67;19.50;;;;;;;2.97;83.03;98579.12;126489;1100;21505;-57
2020/12/04 05:18:05;;;;;;;48.48;19.15;;;;;;;2.97;83.26;98579.12;126429;1100;27177;-59
2020/12/04 05:20:36;;;;;;;51.40;22.13;;;;;;;3.00;82.78;98573.42;126532;1101;25771;-58
2020/12/04 05:23:06;;;;;;;50.93;20.87;;;;;;;3.03;82.73;98585.52;126569;1100;26205;-58
2020/12/04 05:25:39;;;;;;;60.43;20.97;;;;;;;3.05;82.68;98580.30;126521;1101;23323;-57
2020/12/04 05:28:14;;;;;;;48.27;22.60;;;;;;;3.05;82.68;98574.78;126294;1100;23467;-56
2020/12/04 05:30:46;;;;;;;46.40;21.67;;;;;;;3.10;83.15;98582.42;126690;1101;23362;-56
2020/12/04 05:33:15;;;;;;;49.37;21.20;;;;;;;3.14;83.12;98591.28;126532;1100;24110;-58
2020/12/04 05:35:52;;;;;;;46.83;19.45;;;;;;;3.16;82.72;98591.58;126344;1101;23340;-57
2020/12/04 05:38:22;;;;;;;56.97;24.33;;;;;;;3.19;82.94;98583.13;126419;1100;23362;-66
2020/12/04 05:40:52;;;;;;;56.90;22.03;;;;;;;3.20;82.48;98579.15;126275;1100;27902;-56
2020/12/04 05:43:31;;;;;;;56.50;22.22;;;;;;;3.23;82.75;98574.66;126377;1101;23372;-54
2020/12/04 05:46:20;;;;;;;56.37;24.60;;;;;;;3.25;82.62;98575.73;126354;1100;23441;-58
2020/12/04 05:48:58;;;;;;;60.92;23.95;;;;;;;3.27;82.47;98576.02;126592;1101;23382;-57
2020/12/04 05:51:30;;;;;;;61.70;26.10;;;;;;;3.28;82.68;98580.31;126499;1099;26497;-57
2020/12/04 05:54:00;;;;;;;53.33;20.57;;;;;;;3.29;82.39;98568.04;126395;1093;28308;-57
2020/12/04 05:56:33;;;;;;;61.70;23.80;;;;;;;3.32;82.46;98574.62;126493;1101;23327;-59
2020/12/04 05:59:06;;;;;;;52.10;20.87;;;;;;;3.33;82.30;98584.43;126455;1100;24143;-56
2020/12/04 06:01:43;;;;;;;59.97;27.03;;;;;;;3.35;82.30;98586.71;126389;1100;23326;-57
2020/12/04 06:04:16;;;;;;;56.40;25.40;;;;;;;3.36;82.50;98588.22;126399;1100;23379;-59
2020/12/04 06:06:46;;;;;;;57.13;24.03;;;;;;;3.38;82.53;98588.52;125942;1093;23379;-61
2020/12/04 06:09:17;;;;;;;35.98;14.60;;;;;;;3.39;82.35;98588.06;126605;1100;23337;-53
2020/12/04 06:11:49;;;;;;;54.53;22.57;;;;;;;3.41;82.54;98595.86;127184;1099;23533;-56
2020/12/04 06:14:20;;;;;;;63.43;25.67;;;;;;;3.43;82.57;98599.68;126240;1100;23517;-54
2020/12/04 06:17:12;;;;;;;63.85;27.25;;;;;;;3.47;82.00;98594.75;126252;1100;27992;-54
2020/12/04 06:19:44;;;;;;;58.75;26.75;;;;;;;3.49;82.25;98586.77;126434;1100;26350;-58
2020/12/04 06:22:16;;;;;;;63.50;27.80;;;;;;;3.52;82.18;98593.34;126178;1100;23331;-56
2020/12/04 06:25:05;;;;;;;56.00;26.67;;;;;;;3.54;82.05;98601.91;126252;1100;23433;-58
2020/12/04 06:27:43;;;;;;;66.30;27.03;;;;;;;3.54;81.94;98597.13;125988;1101;23530;-59
2020/12/04 06:30:14;;;;;;;66.63;29.83;;;;;;;3.57;82.20;98593.44;126353;1100;23415;-59
2020/12/04 06:32:45;;;;;;;64.20;27.47;;;;;;;3.59;81.84;98592.97;126282;1100;29575;-58
2020/12/04 06:35:14;;;;;;;;;;;;;;;3.59;82.07;98595.72;126172;1098;23367;-61
2020/12/04 06:37:45;;;;;;;62.03;27.37;;;;;;;3.59;81.80;98602.02;126106;1100;21488;-60
2020/12/04 06:40:28;;;;;;;74.20;31.97;;;;;;;3.59;81.78;98612.28;126035;1100;23470;-60
2020/12/04 06:42:59;;;;;;;62.23;26.87;;;;;;;3.59;81.79;98618.56;126381;1099;26840;-59
2020/12/04 06:45:45;;;;;;;;;;;;;;;3.60;81.65;98609.05;126346;1098;23369;-58
2020/12/04 06:48:16;;;;;;;78.00;34.30;;;;;;;3.60;81.83;98619.34;126026;1100;21642;-59
2020/12/04 06:50:49;;;;;;;76.13;34.20;;;;;;;3.60;81.77;98613.82;126597;1099;26940;-59
2020/12/04 06:53:18;;;;;;;87.07;39.07;;;;;;;3.60;81.73;98625.59;125915;1100;24554;-61
2020/12/04 06:55:50;;;;;;;70.03;31.13;;;;;;;3.60;81.82;98633.88;127419;1100;23520;-60
2020/12/04 06:58:19;;;;;;;80.67;34.70;;;;;;;3.60;81.56;98633.13;125916;1100;23323;-59
2020/12/04 07:00:56;;;;;;;92.50;39.80;;;;;;;3.58;81.71;98638.36;125717;1100;23703;-63
2020/12/04 07:03:26;;;;;;;86.70;36.33;;;;;;;3.58;81.33;98647.38;126383;1099;28283;-58
2020/12/04 07:05:55;;;;;;;82.33;35.47;;;;;;;3.58;81.70;98644.63;126667;1100;23380;-60
2020/12/04 07:08:25;;;;;;;77.67;36.45;;;;;;;3.59;81.68;98648.92;125982;1100;23499;-59
2020/12/04 07:10:55;;;;;;;81.47;38.37;;;;;;;3.60;81.77;98639.39;126088;1100;23415;-60
2020/12/04 07:13:24;;;;;;;90.55;40.20;;;;;;;3.61;81.52;98642.92;126264;1100;23320;-60
2020/12/04 07:16:00;;;;;;;88.20;39.73;;;;;;;3.63;81.70;98634.94;126084;1100;25001;-56
2020/12/04 07:18:32;;;;;;;67.77;31.53;;;;;;;3.62;81.37;98639.69;126061;1100;26795;-59
2020/12/04 07:21:01;;;;;;;88.17;36.80;;;;;;;3.62;81.53;98636.92;126186;1100;23370;-57
2020/12/04 07:23:31;;;;;;;86.30;38.47;;;;;;;3.63;81.74;98634.94;125973;1100;23377;-58
2020/12/04 07:26:03;;;;;;;81.55;39.08;;;;;;;3.67;81.49;98627.23;126113;1098;26336;-57
2020/12/04 07:28:33;;;;;;;88.33;37.97;;;;;;;3.67;81.55;98627.23;125936;1100;23316;-57
2020/12/04 07:31:03;;;;;;;79.60;37.75;;;;;;;3.67;81.63;98628.02;126296;1099;27240;-58
2020/12/04 07:33:32;;;;;;;77.25;36.63;;;;;;;3.67;81.63;98613.44;126213;1100;23469;-60
2020/12/04 07:36:08;;;;;;;73.03;33.70;;;;;;;3.65;81.55;98619.44;126400;1100;27958;-57
2020/12/04 07:38:48;;;;;;;74.57;33.10;;;;;;;3.68;81.88;98614.98;129834;1100;23146;-59
2020/12/04 07:41:39;;;;;;;76.82;31.82;;;;;;;3.69;81.85;98620.02;129350;1100;23491;-59
2020/12/04 07:44:10;;;;;;;77.03;35.77;;;;;;;3.70;81.73;98609.75;126210;1100;24244;-59
2020/12/04 07:46:40;;;;;;;74.53;36.73;;;;;;;3.73;81.56;98611.55;126091;1100;23323;-57
2020/12/04 07:49:12;;;;;;;74.17;34.55;;;;;;;3.74;81.71;98613.86;126024;1100;23334;-60
2020/12/04 07:51:42;;;;;;;77.07;36.73;;;;;;;3.77;81.61;98603.85;126259;1099;23281;-58
2020/12/04 07:54:26;;;;;;;75.67;37.00;;;;;;;3.76;81.87;98610.62;126207;1100;23513;-59
2020/12/04 07:56:57;;;;;;;87.43;37.03;;;;;;;3.77;81.85;98607.38;126095;1093;23432;-60
2020/12/04 07:59:30;;;;;;;88.80;39.45;;;;;;;3.80;81.92;98611.97;126307;1100;23285;-60
2020/12/04 08:02:01;;;;;;;81.83;35.63;;;;;;;3.81;81.60;98613.48;126687;1100;23333;-59
2020/12/04 08:04:32;;;;;;;78.67;38.50;;;;;;;3.83;81.54;98616.53;126500;1100;23853;-61
2020/12/04 08:07:10;;;;;;;80.80;39.55;;;;;;;3.84;81.85;98611.78;126185;1100;23366;-62
2020/12/04 08:09:41;;;;;;;81.37;38.63;;;;;;;3.87;81.95;98619.88;128086;1093;26820;-58
2020/12/04 08:12:17;;;;;;;81.83;37.43;;;;;;;3.89;81.95;98622.18;125983;1093;23332;-60
2020/12/04 08:14:53;;;;;;;62.57;30.00;;;;;;;3.87;81.84;98614.34;126077;1093;23899;-58
2020/12/04 08:17:24;;;;;;;67.77;31.07;;;;;;;3.89;81.84;98622.18;125953;1093;23533;-59
2020/12/04 08:19:54;;;;;;;66.73;29.27;;;;;;;3.89;81.59;98622.92;126119;1093;23288;-58
2020/12/04 08:22:31;;;;;;;54.08;24.85;;;;;;;3.92;81.86;98624.75;126107;1100;23350;-58
2020/12/04 08:25:04;;;;;;;59.77;25.90;;;;;;;3.94;82.35;98624.27;126378;1100;23401;-57
2020/12/04 08:27:35;;;;;;;62.85;28.15;;;;;;;3.96;81.75;98613.52;126010;1100;27137;-57
2020/12/04 08:30:15;;;;;;;59.90;28.30;;;;;;;3.98;81.87;98616.56;125957;1100;23537;-59
2020/12/04 08:32:46;;;;;;;56.15;23.50;;;;;;;4.00;81.77;98606.58;125765;1100;23510;-58
2020/12/04 08:35:19;;;;;;;45.20;21.75;;;;;;;3.99;82.05;98607.80;126093;1100;23324;-59
2020/12/04 08:37:51;;;;;;;49.83;18.97;;;;;;;4.05;82.07;98613.44;126516;1100;23306;-58
2020/12/04 08:40:38;;;;;;;48.73;20.87;;;;;;;4.07;82.39;98614.50;126128;1098;23311;-58
2020/12/04 08:43:13;;;;;;;42.03;19.53;;;;;;;4.12;81.84;98609.55;126441;1098;23562;-58
2020/12/04 08:45:44;;;;;;;39.03;17.83;;;;;;;4.15;82.23;98620.41;126735;1098;27108;-60
2020/12/04 08:48:18;;;;;;;39.20;17.03;;;;;;;4.18;82.21;98613.91;126201;1098;28205;-59
2020/12/04 08:50:51;;;;;;;31.55;12.40;;;;;;;4.21;81.98;98610.22;126603;1098;23358;-59
2020/12/04 08:53:22;;;;;;;33.90;15.17;;;;;;;4.24;81.96;98612.04;126118;1098;26816;-61
2020/12/04 08:55:53;;;;;;;33.55;12.70;;;;;;;4.29;81.94;98605.83;126199;1098;25180;-60
2020/12/04 08:58:25;;;;;;;34.23;13.10;;;;;;;4.37;81.97;98620.79;126214;1098;23342;-60
2020/12/04 09:00:58;;;;;;;31.27;11.87;;;;;;;4.46;82.29;98631.76;126489;1094;27617;-59
2020/12/04 09:03:28;;;;;;;29.87;13.83;;;;;;;4.55;81.90;98625.38;126628;1098;23363;-59
2020/12/04 09:05:57;;;;;;;28.07;12.33;;;;;;;4.65;82.10;98624.80;126589;1099;23335;-59
2020/12/04 09:08:27;;;;;;;35.80;14.27;;;;;;;4.77;82.15;98637.56;126183;1093;23597;-61
2020/12/04 09:10:58;;;;;;;30.10;12.40;;;;;;;4.90;82.01;98631.73;126761;1100;23461;-59
2020/12/04 09:13:29;;;;;;;34.30;14.03;;;;;;;5.02;81.70;98632.64;126409;1099;23305;-61
2020/12/04 09:16:00;;;;;;;31.75;11.85;;;;;;;5.14;81.75;98632.33;126903;1099;23326;-59
2020/12/04 09:18:29;;;;;;;32.90;14.38;;;;;;;5.25;81.48;98632.50;126542;1099;23370;-59
2020/12/04 09:21:00;;;;;;;32.83;12.93;;;;;;;5.34;81.38;98639.92;126242;1098;23394;-58
2020/12/04 09:23:28;;;;;;;;;;;;;;;5.39;81.05;98636.45;126585;1098;23332;-59
2020/12/04 09:25:58;;;;;;;29.07;11.50;;;;;;;5.45;81.24;98648.36;126268;1098;23116;-60
2020/12/04 09:28:28;;;;;;;33.60;12.20;;;;;;;5.48;81.15;98644.64;126888;1093;23324;-58
2020/12/04 09:30:59;;;;;;;36.95;14.18;;;;;;;5.53;81.03;98647.47;126662;1098;23416;-60
2020/12/04 09:33:30;;;;;;;35.57;12.77;;;;;;;5.56;80.50;98638.22;126722;1098;23370;-57
2020/12/04 09:36:00;;;;;;;35.43;15.60;;;;;;;5.61;80.72;98639.51;126444;1098;23434;-61
2020/12/04 09:38:30;;;;;;;27.20;12.50;;;;;;;5.63;80.43;98640.55;126361;1098;23332;-60
2020/12/04 09:41:01;;;;;;;31.07;14.00;;;;;;;5.66;80.51;98634.06;127147;1098;23323;-61
2020/12/04 09:43:31;;;;;;;34.53;14.03;;;;;;;5.69;80.78;98627.54;127043;1100;23437;-60
2020/12/04 09:46:01;;;;;;;32.27;13.43;;;;;;;5.70;80.46;98620.77;127058;1100;23330;-57
2020/12/04 09:48:30;;;;;;;23.32;8.23;;;;;;;5.74;79.70;98628.86;126914;1098;26071;-60
2020/12/04 09:51:00;;;;;;;36.93;15.72;;;;;;;5.78;80.20;98623.10;126217;1098;23348;-60
2020/12/04 09:53:30;;;;;;;34.15;13.85;;;;;;;5.80;80.23;98618.61;126371;1098;26281;-59
2020/12/04 09:56:00;;;;;;;38.23;17.73;;;;;;;5.85;80.42;98622.72;126904;1098;29687;-58
2020/12/04 09:58:29;;;;;;;;;;;;;;;5.90;80.18;98614.47;126850;1100;27352;-60
2020/12/04 10:00:59;;;;;;;41.17;19.13;;;;;;;5.91;79.91;98610.47;126704;1099;21499;-58
2020/12/04 10:03:28;;;;;;;33.45;16.90;;;;;;;5.92;79.63;98617.52;126797;1098;26346;-61
2020/12/04 10:05:58;;;;;;;43.87;18.20;;;;;;;5.95;80.16;98599.94;126663;1099;23301;-61
2020/12/04 10:08:28;;;;;;;41.05;19.82;;;;;;;5.98;79.88;98604.48;126189;1094;23502;-60
2020/12/04 10:10:58;;;;;;;42.23;18.47;;;;;;;6.00;80.12;98598.48;126496;1099;23435;-59
2020/12/04 10:13:28;;;;;;;40.12;17.20;;;;;;;6.02;80.17;98609.83;126465;1098;23434;-61
2020/12/04 10:16:04;;;;;;;35.93;16.67;;;;;;;6.06;80.16;98593.76;126639;1099;23377;-60
2020/12/04 10:18:35;;;;;;;38.25;17.20;;;;;;;6.06;79.61;98591.73;126306;1098;23323;-61
2020/12/04 10:21:04;;;;;;;37.03;17.35;;;;;;;6.05;80.00;98590.22;127516;1098;24737;-60
2020/12/04 10:23:34;;;;;;;37.55;15.98;;;;;;;6.04;79.92;98574.09;126287;1099;23376;-60
2020/12/04 10:26:04;;;;;;;34.10;14.35;;;;;;;6.04;79.32;98574.83;126870;1099;29094;-59
2020/12/04 10:28:33;;;;;;;34.57;14.07;;;;;;;6.06;79.27;98574.37;126626;1099;27817;-58
2020/12/04 10:31:04;;;;;;;30.83;14.03;;;;;;;6.08;79.95;98577.41;126351;1098;23374;-57
2020/12/04 10:33:35;;;;;;;26.10;10.57;;;;;;;6.13;79.59;98560.06;126256;1100;23306;-60
2020/12/04 10:36:05;;;;;;;24.02;10.75;;;;;;;6.18;79.76;98562.14;126537;1098;26990;-59
2020/12/04 10:38:35;;;;;;;26.65;9.95;;;;;;;6.25;79.58;98565.22;126816;1099;23346;-60
2020/12/04 10:41:05;;;;;;;26.83;10.17;;;;;;;6.32;79.63;98562.02;126434;1098;23373;-61
2020/12/04 10:43:34;;;;;;;27.20;11.53;;;;;;;6.37;79.51;98566.84;126224;1098;23441;-58
2020/12/04 10:46:04;;;;;;;26.48;9.85;;;;;;;6.42;78.54;98557.05;126626;1098;23365;-60
2020/12/04 10:48:35;;;;;;;20.43;7.05;;;;;;;6.46;78.80;98555.58;126292;1098;26423;-57
2020/12/04 10:51:04;;;;;;;19.70;7.95;;;;;;;6.50;78.20;98561.66;126285;1098;23401;-62
2020/12/04 10:53:34;;;;;;;26.13;9.13;;;;;;;6.53;78.26;98569.02;126823;1093;29677;-57
2020/12/04 10:56:04;;;;;;;18.15;6.20;;;;;;;6.56;78.12;98558.92;126887;1098;26340;-59
2020/12/04 10:58:33;;;;;;;;;;;;;;;6.57;78.39;98556.92;126686;1098;23296;-60
2020/12/04 11:01:04;;;;;;;27.77;11.50;;;;;;;6.56;78.67;98567.24;126673;1098;21497;-61
2020/12/04 11:03:42;;;;;;;28.00;11.05;;;;;;;6.56;78.21;98564.47;126465;1099;25014;-61
2020/12/04 11:06:12;;;;;;;25.47;10.80;;;;;;;6.56;78.33;98574.82;126353;1098;26350;-60
2020/12/04 11:08:46;;;;;;;23.73;8.80;;;;;;;6.56;78.58;98581.11;126223;1099;25180;-60
2020/12/04 11:11:20;;;;;;;28.57;11.07;;;;;;;6.58;78.29;98580.63;126132;1098;23315;-60
2020/12/04 11:13:50;;;;;;;24.53;9.40;;;;;;;6.62;78.22;98583.95;126162;1098;23476;-61
2020/12/04 11:16:20;;;;;;;24.13;9.03;;;;;;;6.65;78.10;98582.94;126302;1098;23312;-59
2020/12/04 11:18:52;;;;;;;26.20;11.00;;;;;;;6.67;78.36;98575.66;127072;1099;23312;-60
2020/12/04 11:21:26;;;;;;;27.07;11.07;;;;;;;6.72;78.20;98565.87;126648;1098;23352;-60
2020/12/04 11:23:56;;;;;;;21.20;8.93;;;;;;;6.75;77.59;98570.41;126954;1099;23467;-60
2020/12/04 11:26:26;;;;;;;30.15;11.50;;;;;;;6.79;77.32;98580.03;126155;1098;27840;-61
2020/12/04 11:28:55;;;;;;;24.52;9.88;;;;;;;6.84;78.10;98564.69;126272;1099;23429;-60
2020/12/04 11:31:25;;;;;;;30.20;12.17;;;;;;;6.87;77.95;98558.17;127001;1098;23784;-61
2020/12/04 11:33:55;;;;;;;27.07;11.23;;;;;;;6.89;78.25;98559.17;126339;1098;26474;-59
2020/12/04 11:36:24;;;;;;;24.07;10.15;;;;;;;6.91;77.27;98551.11;126333;1098;27811;-60